Booker, TX (79005)

6:03 PM CST on February 11, 2016 (GMT -0600)
Zender Laundromat | | Change Station
CLOSE
Current Station
Personal Weather Station
Location: Booker, TX
Elevation: 2844 ft
Nearby Weather Stations

Elev 2844 ft 36.45 °N, 100.54 °W | Updated 16 seconds ago

Partly Cloudy
Partly Cloudy
63.5 °F
Feels Like 63.5 °F
N
4.5
Wind Variable Wind from SW
Gusts 5.4 mph

Today
High -- | Low -- °F
--% Chance of Precip.
Yesterday
High -- | Low -- °F
Precip. -- in
Pressure 30.12 in
Visibility 10.0 miles
Clouds Clear
Dew Point 39 °F
Humidity 41%
Rainfall 0.00 in
Snow Depth Not available.
7:34 AM 6:18 PM
Waxing Crescent, 15% visible
METAR KPYX 112355Z AUTO 20005KT 10SM CLR 15/00 A3012 RMK AO2 T01541003 10197 20123
Pressure 30.12 in
Visibility 10.0 miles
Clouds Clear
Dew Point 39 °F
Humidity 41%
Rainfall 0.00 in
Snow Depth Not available.
7:34 AM 6:18 PM
Waxing Crescent, 15% visible
METAR KPYX 112355Z AUTO 20005KT 10SM CLR 15/00 A3012 RMK AO2 T01541003 10197 20123

10-Day Weather Forecast

Almanac

Astronomy

Feb. 11, 2016 Rise Set
Actual Time
Civil Twilight
Nautical Twilight
Astronomical Twilight
Moon
Length of Visible Light
Length of Day
Tomorrow will be .
, % of the Moon is Illuminated

Today's Extremes

State Highs State Lows

Community

WunderPhotos

Upload Photos

1,892,186 photos uploaded!

WunderBlog® & News

Nearby

Air Quality

  Air Quality AQ Index Pollutant
Not available.

Snow Depth

Station Depth Elevation

Earthquake Activity

City Distance Mag. Time & Date
Minimum magnitude displayed is 2.5.

Coastal Water Temperatures

Place Temperature

Stations

Nearby Weather Stations

Station Location Temp. Windchill Dew Point Humidity Wind Precip. Elev Updated Type
                   

Watches & Warnings

There are currently no watches in effect.